sensor_id;sensor_type;location;lat;lon;timestamp;P1;durP1;ratioP1;P2;durP2;ratioP2
68196;SDS011;55019;49.382;11.358;2023-01-24T00:00:25;10.05;;;4.60;;
68196;SDS011;55019;49.382;11.358;2023-01-24T00:02:51;9.20;;;4.97;;
68196;SDS011;55019;49.382;11.358;2023-01-24T00:05:16;8.13;;;4.25;;
68196;SDS011;55019;49.382;11.358;2023-01-24T00:07:41;7.90;;;4.10;;
68196;SDS011;55019;49.382;11.358;2023-01-24T00:10:07;8.02;;;3.97;;
68196;SDS011;55019;49.382;11.358;2023-01-24T00:12:33;7.82;;;3.58;;
68196;SDS011;55019;49.382;11.358;2023-01-24T00:14:59;10.18;;;5.10;;
68196;SDS011;55019;49.382;11.358;2023-01-24T00:17:24;7.85;;;3.88;;
68196;SDS011;55019;49.382;11.358;2023-01-24T00:19:49;8.80;;;4.15;;
68196;SDS011;55019;49.382;11.358;2023-01-24T00:22:15;8.50;;;3.75;;
68196;SDS011;55019;49.382;11.358;2023-01-24T00:24:40;8.35;;;4.00;;
68196;SDS011;55019;49.382;11.358;2023-01-24T00:27:05;9.48;;;4.57;;
68196;SDS011;55019;49.382;11.358;2023-01-24T00:29:31;7.38;;;4.18;;
68196;SDS011;55019;49.382;11.358;2023-01-24T00:31:56;7.43;;;3.38;;
68196;SDS011;55019;49.382;11.358;2023-01-24T00:34:22;6.03;;;3.42;;
68196;SDS011;55019;49.382;11.358;2023-01-24T00:36:47;7.70;;;4.05;;
68196;SDS011;55019;49.382;11.358;2023-01-24T00:39:13;7.38;;;3.70;;
68196;SDS011;55019;49.382;11.358;2023-01-24T00:41:38;6.95;;;3.83;;
68196;SDS011;55019;49.382;11.358;2023-01-24T00:44:03;8.57;;;3.85;;
68196;SDS011;55019;49.382;11.358;2023-01-24T00:46:29;7.60;;;3.28;;
68196;SDS011;55019;49.382;11.358;2023-01-24T00:48:54;7.97;;;3.50;;
68196;SDS011;55019;49.382;11.358;2023-01-24T00:51:20;7.38;;;3.80;;
68196;SDS011;55019;49.382;11.358;2023-01-24T00:53:45;7.30;;;3.35;;
68196;SDS011;55019;49.382;11.358;2023-01-24T00:56:10;8.30;;;3.47;;
68196;SDS011;55019;49.382;11.358;2023-01-24T00:58:36;8.13;;;3.80;;
68196;SDS011;55019;49.382;11.358;2023-01-24T01:01:02;8.05;;;4.20;;
68196;SDS011;55019;49.382;11.358;2023-01-24T01:03:28;7.57;;;4.10;;
68196;SDS011;55019;49.382;11.358;2023-01-24T01:06:00;7.30;;;4.15;;
68196;SDS011;55019;49.382;11.358;2023-01-24T01:08:27;7.57;;;3.92;;
68196;SDS011;55019;49.382;11.358;2023-01-24T01:10:53;6.20;;;3.20;;
68196;SDS011;55019;49.382;11.358;2023-01-24T01:13:18;6.85;;;3.38;;
68196;SDS011;55019;49.382;11.358;2023-01-24T01:15:43;8.32;;;3.75;;
68196;SDS011;55019;49.382;11.358;2023-01-24T01:18:09;7.35;;;3.78;;
68196;SDS011;55019;49.382;11.358;2023-01-24T01:20:35;10.02;;;3.75;;
68196;SDS011;55019;49.382;11.358;2023-01-24T01:23:01;7.35;;;3.70;;
68196;SDS011;55019;49.382;11.358;2023-01-24T01:25:27;7.22;;;3.70;;
68196;SDS011;55019;49.382;11.358;2023-01-24T01:27:52;7.28;;;3.20;;
68196;SDS011;55019;49.382;11.358;2023-01-24T01:30:18;7.57;;;3.67;;
68196;SDS011;55019;49.382;11.358;2023-01-24T01:32:43;8.63;;;4.18;;
68196;SDS011;55019;49.382;11.358;2023-01-24T01:35:09;7.43;;;3.25;;
68196;SDS011;55019;49.382;11.358;2023-01-24T01:37:34;8.13;;;3.80;;
68196;SDS011;55019;49.382;11.358;2023-01-24T01:39:59;8.15;;;3.42;;
68196;SDS011;55019;49.382;11.358;2023-01-24T01:42:25;6.85;;;3.95;;
68196;SDS011;55019;49.382;11.358;2023-01-24T01:44:52;5.22;;;3.08;;
68196;SDS011;55019;49.382;11.358;2023-01-24T01:47:25;6.85;;;3.15;;
68196;SDS011;55019;49.382;11.358;2023-01-24T01:52:24;6.68;;;3.30;;
68196;SDS011;55019;49.382;11.358;2023-01-24T01:54:50;5.03;;;2.63;;
68196;SDS011;55019;49.382;11.358;2023-01-24T01:57:21;6.68;;;3.65;;
68196;SDS011;55019;49.382;11.358;2023-01-24T02:00:24;8.13;;;3.13;;
68196;SDS011;55019;49.382;11.358;2023-01-24T02:02:48;7.05;;;2.60;;
68196;SDS011;55019;49.382;11.358;2023-01-24T02:05:19;6.95;;;2.70;;
68196;SDS011;55019;49.382;11.358;2023-01-24T02:07:53;6.18;;;3.10;;
68196;SDS011;55019;49.382;11.358;2023-01-24T02:10:23;4.72;;;2.78;;
68196;SDS011;55019;49.382;11.358;2023-01-24T02:13:10;5.22;;;2.47;;
68196;SDS011;55019;49.382;11.358;2023-01-24T02:15:35;4.15;;;2.67;;
68196;SDS011;55019;49.382;11.358;2023-01-24T02:18:19;4.68;;;2.53;;
68196;SDS011;55019;49.382;11.358;2023-01-24T02:20:45;5.43;;;2.42;;
68196;SDS011;55019;49.382;11.358;2023-01-24T02:26:06;5.85;;;3.15;;
68196;SDS011;55019;49.382;11.358;2023-01-24T02:28:36;4.25;;;2.53;;
68196;SDS011;55019;49.382;11.358;2023-01-24T02:31:03;4.70;;;3.05;;
68196;SDS011;55019;49.382;11.358;2023-01-24T02:33:29;5.40;;;2.38;;
68196;SDS011;55019;49.382;11.358;2023-01-24T02:39:09;4.55;;;2.70;;
68196;SDS011;55019;49.382;11.358;2023-01-24T02:41:50;3.88;;;2.25;;
68196;SDS011;55019;49.382;11.358;2023-01-24T02:44:28;5.03;;;2.60;;
68196;SDS011;55019;49.382;11.358;2023-01-24T02:46:59;6.57;;;2.70;;
68196;SDS011;55019;49.382;11.358;2023-01-24T02:49:25;5.95;;;2.38;;
68196;SDS011;55019;49.382;11.358;2023-01-24T02:51:50;4.40;;;2.30;;
68196;SDS011;55019;49.382;11.358;2023-01-24T02:54:34;5.63;;;2.85;;
68196;SDS011;55019;49.382;11.358;2023-01-24T02:56:59;5.28;;;2.80;;
68196;SDS011;55019;49.382;11.358;2023-01-24T02:59:43;5.00;;;2.47;;
68196;SDS011;55019;49.382;11.358;2023-01-24T03:02:09;4.30;;;2.08;;
68196;SDS011;55019;49.382;11.358;2023-01-24T03:04:34;5.50;;;2.58;;
68196;SDS011;55019;49.382;11.358;2023-01-24T03:06:59;5.28;;;2.67;;
68196;SDS011;55019;49.382;11.358;2023-01-24T03:09:25;4.93;;;2.35;;
68196;SDS011;55019;49.382;11.358;2023-01-24T03:14:47;4.65;;;2.30;;
68196;SDS011;55019;49.382;11.358;2023-01-24T03:17:32;6.68;;;2.58;;
68196;SDS011;55019;49.382;11.358;2023-01-24T03:20:16;5.40;;;2.72;;
68196;SDS011;55019;49.382;11.358;2023-01-24T03:23:00;4.10;;;1.90;;
68196;SDS011;55019;49.382;11.358;2023-01-24T03:25:44;4.90;;;2.35;;
68196;SDS011;55019;49.382;11.358;2023-01-24T03:28:28;4.53;;;2.17;;
68196;SDS011;55019;49.382;11.358;2023-01-24T03:31:12;4.38;;;2.17;;
68196;SDS011;55019;49.382;11.358;2023-01-24T03:33:57;5.60;;;2.00;;
68196;SDS011;55019;49.382;11.358;2023-01-24T03:36:41;5.13;;;2.45;;
68196;SDS011;55019;49.382;11.358;2023-01-24T03:39:06;4.07;;;2.50;;
68196;SDS011;55019;49.382;11.358;2023-01-24T03:41:50;4.65;;;1.85;;
68196;SDS011;55019;49.382;11.358;2023-01-24T03:44:15;3.72;;;2.10;;
68196;SDS011;55019;49.382;11.358;2023-01-24T03:46:41;3.40;;;1.92;;
68196;SDS011;55019;49.382;11.358;2023-01-24T03:49:06;4.97;;;1.85;;
68196;SDS011;55019;49.382;11.358;2023-01-24T03:51:32;2.90;;;1.60;;
68196;SDS011;55019;49.382;11.358;2023-01-24T03:54:16;4.00;;;2.25;;
68196;SDS011;55019;49.382;11.358;2023-01-24T03:56:42;3.13;;;1.83;;
68196;SDS011;55019;49.382;11.358;2023-01-24T03:59:07;3.83;;;1.70;;
68196;SDS011;55019;49.382;11.358;2023-01-24T04:01:32;3.90;;;2.00;;
68196;SDS011;55019;49.382;11.358;2023-01-24T04:03:58;4.57;;;2.20;;
68196;SDS011;55019;49.382;11.358;2023-01-24T04:06:23;3.85;;;1.80;;
68196;SDS011;55019;49.382;11.358;2023-01-24T04:08:49;4.05;;;1.92;;
68196;SDS011;55019;49.382;11.358;2023-01-24T04:11:15;2.75;;;1.42;;
68196;SDS011;55019;49.382;11.358;2023-01-24T04:13:41;6.13;;;1.65;;
68196;SDS011;55019;49.382;11.358;2023-01-24T04:16:07;3.65;;;2.00;;
68196;SDS011;55019;49.382;11.358;2023-01-24T04:18:33;3.85;;;1.98;;
68196;SDS011;55019;49.382;11.358;2023-01-24T04:21:02;4.65;;;2.03;;
68196;SDS011;55019;49.382;11.358;2023-01-24T04:23:29;3.95;;;2.13;;
68196;SDS011;55019;49.382;11.358;2023-01-24T04:25:54;6.03;;;1.80;;
68196;SDS011;55019;49.382;11.358;2023-01-24T04:28:22;3.95;;;1.90;;
68196;SDS011;55019;49.382;11.358;2023-01-24T04:30:48;3.42;;;1.83;;
68196;SDS011;55019;49.382;11.358;2023-01-24T04:33:14;3.53;;;1.75;;
68196;SDS011;55019;49.382;11.358;2023-01-24T04:35:39;3.72;;;2.20;;
68196;SDS011;55019;49.382;11.358;2023-01-24T04:38:04;4.28;;;1.65;;
68196;SDS011;55019;49.382;11.358;2023-01-24T04:40:30;3.25;;;2.08;;
68196;SDS011;55019;49.382;11.358;2023-01-24T04:42:56;4.25;;;1.90;;
68196;SDS011;55019;49.382;11.358;2023-01-24T04:45:22;3.22;;;1.95;;
68196;SDS011;55019;49.382;11.358;2023-01-24T04:47:48;3.95;;;1.80;;
68196;SDS011;55019;49.382;11.358;2023-01-24T04:50:14;2.50;;;1.83;;
68196;SDS011;55019;49.382;11.358;2023-01-24T04:52:40;3.15;;;1.92;;
68196;SDS011;55019;49.382;11.358;2023-01-24T04:55:05;3.50;;;1.90;;
68196;SDS011;55019;49.382;11.358;2023-01-24T04:57:31;4.70;;;1.60;;
68196;SDS011;55019;49.382;11.358;2023-01-24T04:59:57;4.45;;;1.83;;
68196;SDS011;55019;49.382;11.358;2023-01-24T05:02:22;5.45;;;2.50;;
68196;SDS011;55019;49.382;11.358;2023-01-24T05:04:48;4.55;;;2.08;;
68196;SDS011;55019;49.382;11.358;2023-01-24T05:07:13;5.07;;;2.30;;
68196;SDS011;55019;49.382;11.358;2023-01-24T05:09:39;3.90;;;2.00;;
68196;SDS011;55019;49.382;11.358;2023-01-24T05:12:04;4.20;;;1.83;;
68196;SDS011;55019;49.382;11.358;2023-01-24T05:14:30;4.38;;;1.98;;
68196;SDS011;55019;49.382;11.358;2023-01-24T05:16:55;5.65;;;2.10;;
68196;SDS011;55019;49.382;11.358;2023-01-24T05:19:21;3.35;;;2.08;;
68196;SDS011;55019;49.382;11.358;2023-01-24T05:21:46;5.07;;;2.40;;
68196;SDS011;55019;49.382;11.358;2023-01-24T05:24:11;2.97;;;1.70;;
68196;SDS011;55019;49.382;11.358;2023-01-24T05:26:37;3.95;;;1.70;;
68196;SDS011;55019;49.382;11.358;2023-01-24T05:29:02;3.60;;;2.00;;
68196;SDS011;55019;49.382;11.358;2023-01-24T05:31:28;4.15;;;2.30;;
68196;SDS011;55019;49.382;11.358;2023-01-24T05:33:53;4.00;;;1.80;;
68196;SDS011;55019;49.382;11.358;2023-01-24T05:36:20;3.15;;;1.73;;
68196;SDS011;55019;49.382;11.358;2023-01-24T05:38:47;3.50;;;2.50;;
68196;SDS011;55019;49.382;11.358;2023-01-24T05:41:13;4.70;;;2.42;;
68196;SDS011;55019;49.382;11.358;2023-01-24T05:43:44;4.70;;;1.63;;
68196;SDS011;55019;49.382;11.358;2023-01-24T05:46:17;4.05;;;1.90;;
68196;SDS011;55019;49.382;11.358;2023-01-24T05:48:45;4.60;;;1.80;;
68196;SDS011;55019;49.382;11.358;2023-01-24T05:51:12;4.45;;;1.73;;
68196;SDS011;55019;49.382;11.358;2023-01-24T05:53:39;4.30;;;2.17;;
68196;SDS011;55019;49.382;11.358;2023-01-24T05:56:07;4.03;;;2.00;;
68196;SDS011;55019;49.382;11.358;2023-01-24T05:58:37;3.13;;;1.85;;
68196;SDS011;55019;49.382;11.358;2023-01-24T06:01:09;3.10;;;1.70;;
68196;SDS011;55019;49.382;11.358;2023-01-24T06:03:37;3.20;;;1.73;;
68196;SDS011;55019;49.382;11.358;2023-01-24T06:06:04;4.10;;;1.60;;
68196;SDS011;55019;49.382;11.358;2023-01-24T06:08:30;3.28;;;1.60;;
68196;SDS011;55019;49.382;11.358;2023-01-24T06:11:01;3.47;;;1.98;;
68196;SDS011;55019;49.382;11.358;2023-01-24T06:13:28;4.18;;;1.92;;
68196;SDS011;55019;49.382;11.358;2023-01-24T06:15:59;3.88;;;1.95;;
68196;SDS011;55019;49.382;11.358;2023-01-24T06:18:26;5.00;;;2.20;;
68196;SDS011;55019;49.382;11.358;2023-01-24T06:20:51;3.15;;;1.58;;
68196;SDS011;55019;49.382;11.358;2023-01-24T06:23:21;3.05;;;1.60;;
68196;SDS011;55019;49.382;11.358;2023-01-24T06:25:49;3.80;;;1.80;;
68196;SDS011;55019;49.382;11.358;2023-01-24T06:28:15;3.97;;;1.90;;
68196;SDS011;55019;49.382;11.358;2023-01-24T06:30:40;4.00;;;1.95;;
68196;SDS011;55019;49.382;11.358;2023-01-24T06:36:10;2.50;;;1.65;;
68196;SDS011;55019;49.382;11.358;2023-01-24T06:38:44;4.32;;;2.17;;
68196;SDS011;55019;49.382;11.358;2023-01-24T06:41:13;3.95;;;1.70;;
68196;SDS011;55019;49.382;11.358;2023-01-24T06:43:40;3.03;;;1.70;;
68196;SDS011;55019;49.382;11.358;2023-01-24T06:46:07;4.60;;;1.98;;
68196;SDS011;55019;49.382;11.358;2023-01-24T06:48:33;3.72;;;2.15;;
68196;SDS011;55019;49.382;11.358;2023-01-24T06:50:59;2.72;;;1.85;;
68196;SDS011;55019;49.382;11.358;2023-01-24T06:53:24;2.92;;;1.80;;
68196;SDS011;55019;49.382;11.358;2023-01-24T06:55:50;4.50;;;1.90;;
68196;SDS011;55019;49.382;11.358;2023-01-24T06:58:15;3.33;;;1.63;;
68196;SDS011;55019;49.382;11.358;2023-01-24T07:00:40;3.47;;;1.98;;
68196;SDS011;55019;49.382;11.358;2023-01-24T07:03:07;2.85;;;2.10;;
68196;SDS011;55019;49.382;11.358;2023-01-24T07:05:33;2.45;;;1.58;;
68196;SDS011;55019;49.382;11.358;2023-01-24T07:08:00;1.92;;;1.27;;
68196;SDS011;55019;49.382;11.358;2023-01-24T07:10:26;3.17;;;1.55;;
68196;SDS011;55019;49.382;11.358;2023-01-24T07:12:53;3.05;;;1.67;;
68196;SDS011;55019;49.382;11.358;2023-01-24T07:15:19;2.97;;;1.67;;
68196;SDS011;55019;49.382;11.358;2023-01-24T07:17:44;3.92;;;1.95;;
68196;SDS011;55019;49.382;11.358;2023-01-24T07:20:13;2.33;;;1.40;;
68196;SDS011;55019;49.382;11.358;2023-01-24T07:22:40;3.35;;;1.70;;
68196;SDS011;55019;49.382;11.358;2023-01-24T07:25:13;3.85;;;1.63;;
68196;SDS011;55019;49.382;11.358;2023-01-24T07:27:44;3.80;;;1.73;;
68196;SDS011;55019;49.382;11.358;2023-01-24T07:30:10;3.60;;;1.77;;
68196;SDS011;55019;49.382;11.358;2023-01-24T07:32:37;3.50;;;1.52;;
68196;SDS011;55019;49.382;11.358;2023-01-24T07:35:04;3.78;;;1.63;;
68196;SDS011;55019;49.382;11.358;2023-01-24T07:37:30;4.47;;;2.17;;
68196;SDS011;55019;49.382;11.358;2023-01-24T07:39:55;2.78;;;1.48;;
68196;SDS011;55019;49.382;11.358;2023-01-24T07:42:21;5.25;;;1.65;;
68196;SDS011;55019;49.382;11.358;2023-01-24T07:44:46;2.17;;;1.38;;
68196;SDS011;55019;49.382;11.358;2023-01-24T07:47:11;2.95;;;1.55;;
68196;SDS011;55019;49.382;11.358;2023-01-24T07:49:37;2.47;;;1.63;;
68196;SDS011;55019;49.382;11.358;2023-01-24T07:52:02;1.50;;;1.13;;
68196;SDS011;55019;49.382;11.358;2023-01-24T07:54:28;2.83;;;1.45;;
68196;SDS011;55019;49.382;11.358;2023-01-24T07:56:53;2.50;;;1.80;;
68196;SDS011;55019;49.382;11.358;2023-01-24T07:59:18;4.18;;;1.75;;
68196;SDS011;55019;49.382;11.358;2023-01-24T08:01:44;2.05;;;1.42;;
68196;SDS011;55019;49.382;11.358;2023-01-24T08:04:09;3.08;;;1.48;;
68196;SDS011;55019;49.382;11.358;2023-01-24T08:06:35;3.75;;;1.58;;
68196;SDS011;55019;49.382;11.358;2023-01-24T08:09:00;3.72;;;1.70;;
68196;SDS011;55019;49.382;11.358;2023-01-24T08:11:26;2.70;;;1.55;;
68196;SDS011;55019;49.382;11.358;2023-01-24T08:13:51;2.33;;;1.25;;
68196;SDS011;55019;49.382;11.358;2023-01-24T08:16:16;2.72;;;1.70;;
68196;SDS011;55019;49.382;11.358;2023-01-24T08:18:42;2.47;;;1.38;;
68196;SDS011;55019;49.382;11.358;2023-01-24T08:21:09;2.38;;;1.33;;
68196;SDS011;55019;49.382;11.358;2023-01-24T08:23:35;2.92;;;1.25;;
68196;SDS011;55019;49.382;11.358;2023-01-24T08:26:01;2.03;;;1.27;;
68196;SDS011;55019;49.382;11.358;2023-01-24T08:28:27;2.13;;;1.50;;
68196;SDS011;55019;49.382;11.358;2023-01-24T08:30:56;2.05;;;1.20;;
68196;SDS011;55019;49.382;11.358;2023-01-24T08:33:22;2.50;;;1.60;;
68196;SDS011;55019;49.382;11.358;2023-01-24T08:35:48;2.90;;;1.42;;
68196;SDS011;55019;49.382;11.358;2023-01-24T08:38:13;3.47;;;1.60;;
68196;SDS011;55019;49.382;11.358;2023-01-24T08:40:39;3.55;;;1.30;;
68196;SDS011;55019;49.382;11.358;2023-01-24T08:43:05;2.55;;;1.48;;
68196;SDS011;55019;49.382;11.358;2023-01-24T08:45:31;2.58;;;1.38;;
68196;SDS011;55019;49.382;11.358;2023-01-24T08:47:57;2.60;;;1.52;;
68196;SDS011;55019;49.382;11.358;2023-01-24T08:50:22;2.53;;;1.52;;
68196;SDS011;55019;49.382;11.358;2023-01-24T08:52:48;3.08;;;1.45;;
68196;SDS011;55019;49.382;11.358;2023-01-24T08:55:14;2.88;;;1.75;;
68196;SDS011;55019;49.382;11.358;2023-01-24T08:57:40;3.45;;;1.77;;
68196;SDS011;55019;49.382;11.358;2023-01-24T09:00:06;2.53;;;1.80;;
68196;SDS011;55019;49.382;11.358;2023-01-24T09:02:32;3.42;;;1.83;;
68196;SDS011;55019;49.382;11.358;2023-01-24T09:04:59;2.55;;;1.60;;
68196;SDS011;55019;49.382;11.358;2023-01-24T09:07:25;3.85;;;2.08;;
68196;SDS011;55019;49.382;11.358;2023-01-24T09:09:50;2.17;;;1.58;;
68196;SDS011;55019;49.382;11.358;2023-01-24T09:12:16;3.17;;;1.48;;
68196;SDS011;55019;49.382;11.358;2023-01-24T09:14:41;5.15;;;2.00;;
68196;SDS011;55019;49.382;11.358;2023-01-24T09:17:06;2.97;;;1.90;;
68196;SDS011;55019;49.382;11.358;2023-01-24T09:19:32;3.70;;;2.13;;
68196;SDS011;55019;49.382;11.358;2023-01-24T09:21:57;2.95;;;1.80;;
68196;SDS011;55019;49.382;11.358;2023-01-24T09:24:23;4.18;;;2.15;;
68196;SDS011;55019;49.382;11.358;2023-01-24T09:26:49;3.00;;;1.90;;
68196;SDS011;55019;49.382;11.358;2023-01-24T09:29:15;5.15;;;2.03;;
68196;SDS011;55019;49.382;11.358;2023-01-24T09:31:41;2.60;;;1.55;;
68196;SDS011;55019;49.382;11.358;2023-01-24T09:34:06;3.78;;;1.98;;
68196;SDS011;55019;49.382;11.358;2023-01-24T09:36:31;3.50;;;1.63;;
68196;SDS011;55019;49.382;11.358;2023-01-24T09:38:57;3.40;;;1.98;;
68196;SDS011;55019;49.382;11.358;2023-01-24T09:47:01;3.35;;;2.08;;
68196;SDS011;55019;49.382;11.358;2023-01-24T09:49:36;2.95;;;1.67;;
68196;SDS011;55019;49.382;11.358;2023-01-24T09:52:06;3.22;;;1.65;;
68196;SDS011;55019;49.382;11.358;2023-01-24T09:57:50;2.70;;;1.40;;
68196;SDS011;55019;49.382;11.358;2023-01-24T10:00:36;2.42;;;1.83;;
68196;SDS011;55019;49.382;11.358;2023-01-24T10:03:05;2.58;;;1.83;;
68196;SDS011;55019;49.382;11.358;2023-01-24T10:05:39;2.67;;;1.70;;
68196;SDS011;55019;49.382;11.358;2023-01-24T10:08:09;3.03;;;1.70;;
68196;SDS011;55019;49.382;11.358;2023-01-24T10:24:28;5.97;;;2.35;;
68196;SDS011;55019;49.382;11.358;2023-01-24T10:26:59;3.88;;;2.00;;
68196;SDS011;55019;49.382;11.358;2023-01-24T10:29:27;4.97;;;2.58;;
68196;SDS011;55019;49.382;11.358;2023-01-24T10:40:13;3.10;;;1.75;;
68196;SDS011;55019;49.382;11.358;2023-01-24T10:42:40;4.57;;;2.03;;
68196;SDS011;55019;49.382;11.358;2023-01-24T10:48:23;4.22;;;2.50;;
68196;SDS011;55019;49.382;11.358;2023-01-24T10:51:09;3.85;;;2.60;;
68196;SDS011;55019;49.382;11.358;2023-01-24T10:53:45;3.30;;;2.28;;
68196;SDS011;55019;49.382;11.358;2023-01-24T10:56:12;2.65;;;1.58;;
68196;SDS011;55019;49.382;11.358;2023-01-24T10:58:44;3.35;;;2.10;;
68196;SDS011;55019;49.382;11.358;2023-01-24T11:01:46;2.80;;;1.67;;
68196;SDS011;55019;49.382;11.358;2023-01-24T11:06:51;2.75;;;1.60;;
68196;SDS011;55019;49.382;11.358;2023-01-24T11:09:21;3.15;;;1.95;;
68196;SDS011;55019;49.382;11.358;2023-01-24T11:11:51;3.42;;;1.90;;
68196;SDS011;55019;49.382;11.358;2023-01-24T11:14:21;3.70;;;2.42;;
68196;SDS011;55019;49.382;11.358;2023-01-24T11:16:50;3.42;;;1.90;;
68196;SDS011;55019;49.382;11.358;2023-01-24T11:19:20;3.05;;;2.10;;
68196;SDS011;55019;49.382;11.358;2023-01-24T11:21:55;3.78;;;2.17;;
68196;SDS011;55019;49.382;11.358;2023-01-24T11:24:22;2.55;;;1.60;;
68196;SDS011;55019;49.382;11.358;2023-01-24T11:29:30;4.63;;;2.35;;
68196;SDS011;55019;49.382;11.358;2023-01-24T11:35:17;3.30;;;2.03;;
68196;SDS011;55019;49.382;11.358;2023-01-24T11:40:20;3.50;;;2.00;;
68196;SDS011;55019;49.382;11.358;2023-01-24T12:10:23;4.15;;;2.53;;
68196;SDS011;55019;49.382;11.358;2023-01-24T12:12:52;4.57;;;2.13;;
68196;SDS011;55019;49.382;11.358;2023-01-24T12:16:00;3.65;;;2.30;;
68196;SDS011;55019;49.382;11.358;2023-01-24T12:18:30;4.57;;;2.03;;
68196;SDS011;55019;49.382;11.358;2023-01-24T12:21:18;4.55;;;2.40;;
68196;SDS011;55019;49.382;11.358;2023-01-24T12:23:49;3.97;;;2.63;;
68196;SDS011;55019;49.382;11.358;2023-01-24T12:26:32;4.55;;;2.78;;
68196;SDS011;55019;49.382;11.358;2023-01-24T12:31:37;5.57;;;2.50;;
68196;SDS011;55019;49.382;11.358;2023-01-24T12:34:29;5.15;;;3.00;;
68196;SDS011;55019;49.382;11.358;2023-01-24T12:37:15;4.00;;;2.70;;
68196;SDS011;55019;49.382;11.358;2023-01-24T12:40:03;5.18;;;2.83;;
68196;SDS011;55019;49.382;11.358;2023-01-24T12:45:16;4.40;;;2.75;;
68196;SDS011;55019;49.382;11.358;2023-01-24T12:47:48;4.57;;;2.60;;
68196;SDS011;55019;49.382;11.358;2023-01-24T12:50:29;5.05;;;2.90;;
68196;SDS011;55019;49.382;11.358;2023-01-24T12:53:48;6.65;;;2.88;;
68196;SDS011;55019;49.382;11.358;2023-01-24T12:56:05;3.20;;;2.28;;
68196;SDS011;55019;49.382;11.358;2023-01-24T12:58:37;3.85;;;2.58;;
68196;SDS011;55019;49.382;11.358;2023-01-24T13:06:53;4.82;;;2.47;;
68196;SDS011;55019;49.382;11.358;2023-01-24T13:12:16;4.60;;;2.55;;
68196;SDS011;55019;49.382;11.358;2023-01-24T13:14:54;4.70;;;2.65;;
68196;SDS011;55019;49.382;11.358;2023-01-24T13:31:09;6.95;;;3.67;;
68196;SDS011;55019;49.382;11.358;2023-01-24T13:33:46;7.18;;;3.90;;
68196;SDS011;55019;49.382;11.358;2023-01-24T13:36:17;4.68;;;2.80;;
68196;SDS011;55019;49.382;11.358;2023-01-24T13:38:45;5.38;;;3.58;;
68196;SDS011;55019;49.382;11.358;2023-01-24T13:41:17;5.55;;;3.47;;
68196;SDS011;55019;49.382;11.358;2023-01-24T13:51:57;7.03;;;4.00;;
68196;SDS011;55019;49.382;11.358;2023-01-24T13:57:09;4.07;;;2.70;;
68196;SDS011;55019;49.382;11.358;2023-01-24T13:59:56;8.25;;;3.20;;
68196;SDS011;55019;49.382;11.358;2023-01-24T14:02:26;5.07;;;3.15;;
68196;SDS011;55019;49.382;11.358;2023-01-24T14:04:58;5.93;;;2.88;;
68196;SDS011;55019;49.382;11.358;2023-01-24T14:07:36;5.82;;;3.22;;
68196;SDS011;55019;49.382;11.358;2023-01-24T14:10:05;4.93;;;2.80;;
68196;SDS011;55019;49.382;11.358;2023-01-24T14:12:36;6.60;;;3.55;;
68196;SDS011;55019;49.382;11.358;2023-01-24T14:20:14;5.97;;;3.45;;
68196;SDS011;55019;49.382;11.358;2023-01-24T14:22:44;7.65;;;3.97;;
68196;SDS011;55019;49.382;11.358;2023-01-24T14:28:40;6.07;;;3.72;;
68196;SDS011;55019;49.382;11.358;2023-01-24T14:31:02;6.97;;;3.97;;
68196;SDS011;55019;49.382;11.358;2023-01-24T14:33:49;5.80;;;3.10;;
68196;SDS011;55019;49.382;11.358;2023-01-24T14:36:32;6.63;;;3.28;;
68196;SDS011;55019;49.382;11.358;2023-01-24T14:41:40;4.43;;;2.83;;
68196;SDS011;55019;49.382;11.358;2023-01-24T14:47:04;6.50;;;3.75;;
68196;SDS011;55019;49.382;11.358;2023-01-24T14:49:45;7.35;;;3.95;;
68196;SDS011;55019;49.382;11.358;2023-01-24T14:52:18;4.53;;;3.10;;
68196;SDS011;55019;49.382;11.358;2023-01-24T14:54:48;6.80;;;3.47;;
68196;SDS011;55019;49.382;11.358;2023-01-24T14:57:28;6.90;;;3.45;;
68196;SDS011;55019;49.382;11.358;2023-01-24T14:59:59;6.07;;;3.67;;
68196;SDS011;55019;49.382;11.358;2023-01-24T15:02:25;8.80;;;4.25;;
68196;SDS011;55019;49.382;11.358;2023-01-24T15:04:51;5.68;;;3.28;;
68196;SDS011;55019;49.382;11.358;2023-01-24T15:07:17;7.35;;;4.47;;
68196;SDS011;55019;49.382;11.358;2023-01-24T15:09:42;6.15;;;3.67;;
68196;SDS011;55019;49.382;11.358;2023-01-24T15:14:55;4.07;;;2.92;;
68196;SDS011;55019;49.382;11.358;2023-01-24T15:17:24;6.70;;;3.50;;
68196;SDS011;55019;49.382;11.358;2023-01-24T15:19:52;6.55;;;3.80;;
68196;SDS011;55019;49.382;11.358;2023-01-24T15:22:25;6.88;;;3.92;;
68196;SDS011;55019;49.382;11.358;2023-01-24T15:24:53;6.95;;;4.10;;
68196;SDS011;55019;49.382;11.358;2023-01-24T15:35:27;6.03;;;3.72;;
68196;SDS011;55019;49.382;11.358;2023-01-24T15:40:31;6.85;;;3.50;;
68196;SDS011;55019;49.382;11.358;2023-01-24T15:42:58;4.93;;;2.70;;
68196;SDS011;55019;49.382;11.358;2023-01-24T15:45:48;4.85;;;3.22;;
68196;SDS011;55019;49.382;11.358;2023-01-24T15:48:36;5.70;;;2.97;;
68196;SDS011;55019;49.382;11.358;2023-01-24T15:51:02;4.68;;;2.95;;
68196;SDS011;55019;49.382;11.358;2023-01-24T15:53:40;4.78;;;3.20;;
68196;SDS011;55019;49.382;11.358;2023-01-24T15:56:12;5.03;;;2.88;;
68196;SDS011;55019;49.382;11.358;2023-01-24T15:58:45;6.70;;;3.63;;
68196;SDS011;55019;49.382;11.358;2023-01-24T16:01:12;5.82;;;3.17;;
68196;SDS011;55019;49.382;11.358;2023-01-24T16:03:38;7.13;;;3.80;;
68196;SDS011;55019;49.382;11.358;2023-01-24T16:06:03;6.10;;;3.28;;
68196;SDS011;55019;49.382;11.358;2023-01-24T16:08:29;6.78;;;3.75;;
68196;SDS011;55019;49.382;11.358;2023-01-24T16:10:54;6.60;;;3.58;;
68196;SDS011;55019;49.382;11.358;2023-01-24T16:15:58;7.85;;;4.00;;
68196;SDS011;55019;49.382;11.358;2023-01-24T16:18:25;9.00;;;4.38;;
68196;SDS011;55019;49.382;11.358;2023-01-24T16:20:51;7.60;;;4.25;;
68196;SDS011;55019;49.382;11.358;2023-01-24T16:23:17;9.02;;;5.00;;
68196;SDS011;55019;49.382;11.358;2023-01-24T16:25:42;8.85;;;4.20;;
68196;SDS011;55019;49.382;11.358;2023-01-24T16:28:19;7.97;;;4.57;;
68196;SDS011;55019;49.382;11.358;2023-01-24T16:30:47;7.93;;;4.35;;
68196;SDS011;55019;49.382;11.358;2023-01-24T16:33:17;9.13;;;4.75;;
68196;SDS011;55019;49.382;11.358;2023-01-24T16:35:43;8.10;;;4.53;;
68196;SDS011;55019;49.382;11.358;2023-01-24T16:38:09;7.43;;;4.18;;
68196;SDS011;55019;49.382;11.358;2023-01-24T16:40:36;9.70;;;4.40;;
68196;SDS011;55019;49.382;11.358;2023-01-24T16:43:03;9.65;;;4.93;;
68196;SDS011;55019;49.382;11.358;2023-01-24T16:45:29;10.90;;;4.55;;
68196;SDS011;55019;49.382;11.358;2023-01-24T16:47:55;8.15;;;4.57;;
68196;SDS011;55019;49.382;11.358;2023-01-24T16:50:21;7.88;;;3.83;;
68196;SDS011;55019;49.382;11.358;2023-01-24T16:52:46;6.50;;;3.78;;
68196;SDS011;55019;49.382;11.358;2023-01-24T16:55:14;10.07;;;4.20;;
68196;SDS011;55019;49.382;11.358;2023-01-24T16:57:40;8.15;;;4.25;;
68196;SDS011;55019;49.382;11.358;2023-01-24T17:00:06;9.10;;;4.82;;
68196;SDS011;55019;49.382;11.358;2023-01-24T17:02:39;7.00;;;4.25;;
68196;SDS011;55019;49.382;11.358;2023-01-24T17:05:15;8.88;;;4.47;;
68196;SDS011;55019;49.382;11.358;2023-01-24T17:07:41;10.18;;;5.32;;
68196;SDS011;55019;49.382;11.358;2023-01-24T17:10:07;9.90;;;5.45;;
68196;SDS011;55019;49.382;11.358;2023-01-24T17:12:34;7.53;;;4.30;;
68196;SDS011;55019;49.382;11.358;2023-01-24T17:14:59;10.32;;;5.25;;
68196;SDS011;55019;49.382;11.358;2023-01-24T17:17:25;10.70;;;6.00;;
68196;SDS011;55019;49.382;11.358;2023-01-24T17:19:51;10.30;;;4.80;;